Airfield :
LOGIN :

Register | Disclaimer

   EN    FR    IT 

 










Legend :    VFR   Marginal VFR   IFR   Intensive IFR   Very Intensive IFR
Visi :
Ceiling :
>= 8 km
>= 3000ft
5 to 8 km
1000 to 3000 ft
1500m to 5 km
500 to 1000 ft
800 to 1500m
200 to 500 ft
< 800m
< 200 ft
Symbols :   Thunderstorms  Fog  Heavy snow  Heavy precipitations  Wind > 20 kt
SIGMETs :     Misc.  Thunderstorms  Icing  Turbulence  Mountain Waves  Volcanic Ashes






- Airport Elevation : 1036 ft
- IATA code : CLJ


LRCL - Cluj-Napoca International

CURRENT METAR :
  • 310800Z 07005KT 9999 FEW035 BKN056 12/07 Q1010

EXPIRED METARs :
  • 310730Z 06005KT 9999 -RA BKN050 12/08 Q1010
  • 310700Z 03003KT 350V090 9999 BKN056 12/07 Q1010
  • 310630Z 34003KT 300V020 9999 SCT060 11/06 Q1010
  • 310600Z VRB02KT 9999 SCT053 11/07 Q1010
  • 310530Z 00000KT 9999 BKN044 11/08 Q1010
  • 310500Z VRB01KT 9999 BKN045 BKN067 10/07 Q1010

TAF TAF LRCL
Valid from the 31 at 06:00 until the 31 at 15:00 UTC


310500Z 3106/3115 VRB03KT 9999 SCT045 BKN060
TEMPO 3110/3115 5000 -RA BKN015 BKN040
BECMG 3112/3114 34010KT



MET'MAP, your aeronautical weather chart ! - Copyright ORBIFLY December 2007 - Disclaimer

ORBIFLY MET'MAP TEAM :

Programming & Development : Alexandra Zaïnal
Concept & original design : Baudouin d'Aumeries
Assistance for programming : Marc-Olivier Méhu
Technical & hardware support : Manuel Goepfert

Contact : metmap@orbifly.com




SOURCES & CREDITS :

   NOAA